Time;durP1;ratioP1;P1;durP2;ratioP2;P2;SDS_P1;SDS_P2;PMS_P1;PMS_P2;Temp;Humidity;BMP_temperature;BMP_pressure;BME280_temperature;BME280_humidity;BME280_pressure;Samples;Min_cycle;Max_cycle;Signal;HPM_P1;HPM_P2
2021/11/19 00:00:31;;;;;;;0.40;0.27;;;3.10;99.90;;;;;;5013795;28;20873;-69
2021/11/19 00:02:57;;;;;;;0.40;0.20;;;3.20;99.90;;;;;;5013812;28;20443;-70
2021/11/19 00:05:22;;;;;;;0.40;0.20;;;3.10;99.90;;;;;;5013659;28;20807;-70
2021/11/19 00:07:48;;;;;;;0.40;0.20;;;3.10;99.90;;;;;;5013326;28;20389;-70
2021/11/19 00:10:14;;;;;;;0.40;0.30;;;3.10;99.90;;;;;;5013934;28;20388;-70
2021/11/19 00:12:40;;;;;;;0.40;0.40;;;3.10;99.90;;;;;;5013889;28;20396;-70
2021/11/19 00:15:07;;;;;;;0.40;0.20;;;3.20;99.90;;;;;;5013178;28;20376;-70
2021/11/19 00:17:34;;;;;;;0.40;0.20;;;3.30;99.90;;;;;;5013838;28;20862;-70
2021/11/19 00:19:59;;;;;;;0.40;0.20;;;3.30;99.90;;;;;;5013208;28;20487;-70
2021/11/19 00:22:25;;;;;;;0.40;0.30;;;3.20;99.90;;;;;;5013562;28;20519;-71
2021/11/19 00:24:51;;;;;;;0.60;0.50;;;3.20;99.90;;;;;;5013643;28;20386;-71
2021/11/19 00:27:19;;;;;;;0.40;0.22;;;3.20;99.90;;;;;;5012554;28;20387;-71
2021/11/19 00:29:46;;;;;;;0.40;0.20;;;3.20;99.90;;;;;;5013071;28;20381;-71
2021/11/19 00:32:12;;;;;;;0.40;0.20;;;3.30;99.90;;;;;;5012316;28;20385;-72
2021/11/19 00:34:39;;;;;;;0.40;0.20;;;3.30;99.90;;;;;;5013106;28;20385;-70
2021/11/19 00:37:06;;;;;;;0.40;0.20;;;3.40;99.90;;;;;;5012156;28;20476;-70
2021/11/19 00:39:32;;;;;;;5.30;1.10;;;3.20;99.90;;;;;;5012682;28;20757;-70
2021/11/19 00:41:59;;;;;;;0.40;0.20;;;3.10;99.90;;;;;;5012859;28;20440;-70
2021/11/19 00:44:26;;;;;;;0.40;0.20;;;3.10;99.90;;;;;;5012429;28;20387;-70
2021/11/19 00:46:53;;;;;;;0.40;0.20;;;3.00;99.90;;;;;;5012793;28;20424;-70
2021/11/19 00:49:21;;;;;;;0.40;0.28;;;3.10;99.90;;;;;;5011777;28;20405;-70
2021/11/19 00:51:50;;;;;;;0.40;0.20;;;2.90;99.90;;;;;;5012750;28;20389;-70
2021/11/19 00:54:16;;;;;;;0.40;0.20;;;2.80;99.90;;;;;;5011975;28;20372;-70
2021/11/19 00:56:46;;;;;;;0.40;0.20;;;2.80;99.90;;;;;;5012583;28;20389;-70
2021/11/19 00:59:14;;;;;;;0.40;0.20;;;2.80;99.90;;;;;;4995420;28;20717;-71
2021/11/19 01:01:45;;;;;;;0.40;0.20;;;2.80;99.90;;;;;;4992710;28;20422;-70
2021/11/19 01:04:12;;;;;;;0.40;0.28;;;2.70;99.90;;;;;;4992452;28;20422;-70
2021/11/19 01:06:39;;;;;;;0.40;0.20;;;2.70;99.90;;;;;;4992834;28;20410;-70
2021/11/19 01:09:08;;;;;;;0.50;0.50;;;2.70;99.90;;;;;;4993214;28;20445;-70
2021/11/19 01:11:34;;;;;;;0.40;0.20;;;2.80;99.90;;;;;;4991537;28;20398;-70
2021/11/19 01:14:03;;;;;;;0.40;0.20;;;2.70;99.90;;;;;;4992796;28;20394;-70
2021/11/19 01:16:40;;;;;;;0.80;0.60;;;2.60;99.90;;;;;;4991708;28;20391;-71
2021/11/19 01:19:24;;;;;;;0.60;0.50;;;2.60;99.90;;;;;;4992886;28;20776;-70
2021/11/19 01:21:54;;;;;;;0.40;0.20;;;2.60;99.90;;;;;;4975053;28;20440;-70
2021/11/19 01:24:21;;;;;;;0.40;0.20;;;2.60;99.90;;;;;;4992806;28;20820;-69
2021/11/19 01:26:47;;;;;;;0.40;0.20;;;2.70;99.90;;;;;;4992093;28;20580;-70
2021/11/19 01:29:15;;;;;;;0.40;0.20;;;2.80;99.90;;;;;;4992591;28;20393;-70
2021/11/19 01:31:45;;;;;;;0.40;0.40;;;2.90;99.90;;;;;;4991607;28;20439;-70
2021/11/19 01:34:11;;;;;;;0.53;0.53;;;3.10;99.90;;;;;;4992384;28;20426;-70
2021/11/19 01:36:38;;;;;;;0.40;0.20;;;3.00;99.90;;;;;;4974216;28;20394;-70
2021/11/19 01:39:06;;;;;;;0.40;0.20;;;3.20;99.90;;;;;;4992375;28;20636;-70
2021/11/19 01:41:38;;;;;;;0.40;0.20;;;3.20;99.90;;;;;;4991839;28;20413;-71
2021/11/19 01:44:17;;;;;;;0.40;0.20;;;3.10;99.90;;;;;;4992363;28;20390;-70
2021/11/19 01:46:47;;;;;;;0.40;0.20;;;3.10;99.90;;;;;;4991583;28;20383;-71
2021/11/19 01:49:13;;;;;;;0.40;0.20;;;3.10;99.90;;;;;;4992153;28;20882;-70
2021/11/19 01:51:51;;;;;;;0.40;0.20;;;3.30;99.90;;;;;;4974138;28;20764;-71
2021/11/19 01:54:24;;;;;;;0.40;0.20;;;3.20;99.90;;;;;;4975285;28;20397;-70
2021/11/19 01:57:01;;;;;;;0.40;0.20;;;3.20;99.90;;;;;;4991352;28;20390;-70
2021/11/19 01:59:34;;;;;;;0.40;0.22;;;3.10;99.90;;;;;;5010934;28;20415;-70
2021/11/19 02:02:05;;;;;;;0.40;0.30;;;3.10;99.90;;;;;;5010362;28;20404;-70
2021/11/19 02:04:39;;;;;;;0.40;0.20;;;3.10;99.90;;;;;;5011422;28;20381;-70
2021/11/19 02:07:13;;;;;;;1.40;0.50;;;2.90;99.90;;;;;;5010460;28;20468;-70
2021/11/19 02:09:53;;;;;;;0.40;0.40;;;2.90;99.90;;;;;;5011472;28;20381;-70
2021/11/19 02:12:28;;;;;;;0.40;0.20;;;2.70;99.90;;;;;;5011461;28;20439;-70
2021/11/19 02:15:16;;;;;;;0.40;0.40;;;2.70;99.90;;;;;;5010533;28;20916;-71
2021/11/19 02:17:47;;;;;;;0.40;0.20;;;2.70;99.90;;;;;;5010938;28;20396;-70
2021/11/19 02:20:18;;;;;;;0.40;0.20;;;2.60;99.90;;;;;;5010542;28;20401;-70
2021/11/19 02:22:48;;;;;;;0.40;0.20;;;2.60;99.90;;;;;;5011283;28;20378;-70
2021/11/19 02:25:22;;;;;;;0.40;0.20;;;2.50;99.90;;;;;;5010342;28;20404;-70
2021/11/19 02:27:57;;;;;;;0.40;0.30;;;2.50;99.90;;;;;;5010840;28;20377;-70
2021/11/19 02:30:34;;;;;;;0.40;0.30;;;2.50;99.90;;;;;;5011005;28;20435;-70
2021/11/19 02:33:06;;;;;;;0.40;0.30;;;2.40;99.90;;;;;;5010327;28;20373;-71
2021/11/19 02:35:57;;;;;;;0.40;0.20;;;2.40;99.90;;;;;;5011021;28;20388;-70
2021/11/19 02:38:27;;;;;;;0.40;0.20;;;2.40;99.90;;;;;;5010059;28;20739;-70
2021/11/19 02:40:53;;;;;;;0.50;0.50;;;2.40;99.90;;;;;;5010379;28;20408;-70
2021/11/19 02:43:26;;;;;;;0.40;0.20;;;2.40;99.90;;;;;;5009973;28;20869;-70
2021/11/19 02:45:53;;;;;;;0.40;0.20;;;2.50;99.90;;;;;;5011032;28;20438;-70
2021/11/19 02:48:23;;;;;;;0.40;0.20;;;2.50;99.90;;;;;;5009921;28;20436;-70
2021/11/19 02:50:52;;;;;;;0.40;0.20;;;2.60;99.90;;;;;;5011158;28;20431;-70
2021/11/19 02:53:18;;;;;;;0.40;0.20;;;2.60;99.90;;;;;;5009997;28;20380;-70
2021/11/19 02:55:47;;;;;;;0.40;0.20;;;2.80;99.90;;;;;;5011100;28;20460;-70
2021/11/19 02:58:17;;;;;;;0.40;0.30;;;2.70;99.90;;;;;;5001866;28;20747;-71
2021/11/19 03:01:17;;;;;;;0.40;0.20;;;2.70;99.90;;;;;;4991095;28;20414;-70
2021/11/19 03:03:47;;;;;;;0.40;0.30;;;2.70;99.90;;;;;;4990690;28;20482;-70
2021/11/19 03:06:13;;;;;;;0.40;0.20;;;2.70;99.90;;;;;;4990887;28;20446;-70
2021/11/19 03:08:39;;;;;;;0.40;0.40;;;2.70;99.90;;;;;;4990275;28;20417;-70
2021/11/19 03:11:06;;;;;;;0.40;0.20;;;2.70;99.90;;;;;;4990980;28;20453;-70
2021/11/19 03:13:35;;;;;;;0.40;0.20;;;2.70;99.90;;;;;;4989849;28;20387;-71
2021/11/19 03:16:03;;;;;;;0.40;0.20;;;2.60;99.90;;;;;;4993942;28;20390;-70
2021/11/19 03:18:29;;;;;;;0.85;0.85;;;2.70;99.90;;;;;;4994233;28;20392;-72
2021/11/19 03:20:59;;;;;;;0.40;0.20;;;2.60;99.90;;;;;;4994625;28;20434;-70
2021/11/19 03:23:26;;;;;;;4.10;0.80;;;2.60;99.90;;;;;;4994773;28;20390;-70
2021/11/19 03:25:52;;;;;;;0.40;0.40;;;2.50;99.90;;;;;;4994065;28;20409;-70
2021/11/19 03:28:24;;;;;;;0.40;0.20;;;2.60;99.90;;;;;;4995073;28;20736;-70
2021/11/19 03:30:52;;;;;;;0.52;0.52;;;2.70;99.90;;;;;;4993958;28;20766;-70
2021/11/19 03:33:21;;;;;;;0.40;0.20;;;2.70;99.90;;;;;;4994779;28;20493;-70
2021/11/19 03:35:48;;;;;;;0.40;0.30;;;2.70;99.90;;;;;;4993676;28;20446;-70
2021/11/19 03:38:14;;;;;;;0.40;0.30;;;2.70;99.90;;;;;;4994611;28;20393;-70
2021/11/19 03:40:42;;;;;;;0.40;0.20;;;2.70;99.90;;;;;;4976393;28;20421;-71
2021/11/19 03:43:12;;;;;;;0.40;0.30;;;2.80;99.90;;;;;;4994178;28;20449;-70
2021/11/19 03:45:42;;;;;;;0.40;0.20;;;2.70;99.90;;;;;;4994215;28;20954;-70
2021/11/19 03:48:09;;;;;;;0.40;0.30;;;2.50;99.90;;;;;;4994061;28;20386;-71
2021/11/19 03:50:53;;;;;;;0.40;0.30;;;2.40;99.90;;;;;;4994215;28;20425;-70
2021/11/19 03:53:20;;;;;;;0.40;0.20;;;2.40;99.90;;;;;;4994561;28;20382;-70
2021/11/19 03:55:50;;;;;;;0.40;0.30;;;2.40;99.90;;;;;;4994330;28;20477;-70
2021/11/19 03:58:21;;;;;;;0.40;0.20;;;2.40;99.90;;;;;;4994029;28;20421;-71
2021/11/19 04:00:51;;;;;;;0.40;0.20;;;2.50;99.90;;;;;;4994413;28;20434;-71
2021/11/19 04:03:17;;;;;;;0.40;0.20;;;2.40;99.90;;;;;;4993955;28;20383;-71
2021/11/19 04:05:45;;;;;;;0.40;0.20;;;2.40;99.90;;;;;;4994104;28;20514;-71
2021/11/19 04:08:11;;;;;;;0.40;0.30;;;2.40;99.90;;;;;;4993226;28;20379;-70
2021/11/19 04:10:38;;;;;;;0.40;0.20;;;2.30;99.90;;;;;;4993539;28;20398;-71
2021/11/19 04:13:06;;;;;;;0.40;0.40;;;2.30;99.90;;;;;;4993091;28;20386;-71
2021/11/19 04:15:35;;;;;;;0.40;0.20;;;2.30;99.90;;;;;;4993757;28;20378;-70
2021/11/19 04:18:01;;;;;;;0.90;0.90;;;2.20;99.90;;;;;;4993801;28;20390;-71
2021/11/19 04:20:27;;;;;;;0.40;0.20;;;2.20;99.90;;;;;;4993302;28;20409;-70
2021/11/19 04:22:53;;;;;;;0.40;0.20;;;2.10;99.90;;;;;;4993806;28;20426;-70
2021/11/19 04:25:21;;;;;;;0.40;0.23;;;2.10;99.90;;;;;;4992424;28;20394;-70
2021/11/19 04:27:47;;;;;;;0.40;0.20;;;2.20;99.90;;;;;;4993296;28;20386;-70
2021/11/19 04:30:30;;;;;;;0.40;0.20;;;2.20;99.90;;;;;;4992901;28;20421;-71
2021/11/19 04:32:57;;;;;;;0.40;0.20;;;2.30;99.90;;;;;;4993617;28;20473;-70
2021/11/19 04:35:24;;;;;;;0.40;0.20;;;2.30;99.90;;;;;;4992323;28;20406;-70
2021/11/19 04:37:50;;;;;;;0.40;0.20;;;2.30;99.90;;;;;;4993776;28;20425;-70
2021/11/19 04:40:17;;;;;;;0.40;0.20;;;2.30;99.90;;;;;;4991671;28;20453;-71
2021/11/19 04:42:46;;;;;;;0.40;0.20;;;2.40;99.90;;;;;;4973964;28;20403;-69
2021/11/19 04:45:15;;;;;;;0.40;0.20;;;2.40;99.90;;;;;;4973802;28;20487;-70
2021/11/19 04:47:42;;;;;;;0.40;0.20;;;2.40;99.90;;;;;;4973198;28;20445;-70
2021/11/19 04:50:10;;;;;;;0.40;0.20;;;2.40;99.90;;;;;;4973209;28;20442;-70
2021/11/19 04:52:36;;;;;;;0.40;0.20;;;2.40;99.90;;;;;;4972960;28;20388;-71
2021/11/19 04:55:04;;;;;;;0.40;0.20;;;2.40;99.90;;;;;;4973525;28;20451;-70
2021/11/19 04:57:29;;;;;;;0.40;0.20;;;2.40;99.90;;;;;;4976044;28;20474;-71
2021/11/19 04:59:55;;;;;;;0.40;0.20;;;2.30;99.90;;;;;;4992253;28;20398;-70
2021/11/19 05:02:21;;;;;;;0.40;0.20;;;2.20;99.90;;;;;;4993228;28;20485;-70
2021/11/19 05:04:48;;;;;;;0.40;0.20;;;2.30;99.90;;;;;;4992287;28;20422;-70
2021/11/19 05:07:15;;;;;;;0.40;0.20;;;2.20;99.90;;;;;;4993072;28;20462;-70
2021/11/19 05:09:41;;;;;;;0.40;0.20;;;2.30;99.90;;;;;;4991708;28;20390;-71
2021/11/19 05:12:10;;;;;;;0.40;0.20;;;2.10;99.90;;;;;;4993032;28;20414;-70
2021/11/19 05:14:39;;;;;;;0.40;0.20;;;2.10;99.90;;;;;;4992938;28;20417;-70
2021/11/19 05:17:07;;;;;;;0.40;0.20;;;2.20;99.90;;;;;;4992592;28;20374;-70
2021/11/19 05:19:34;;;;;;;0.40;0.20;;;2.10;99.90;;;;;;4975504;28;21030;-70
2021/11/19 05:22:00;;;;;;;0.40;0.20;;;2.10;99.90;;;;;;4974664;28;20422;-70
2021/11/19 05:24:26;;;;;;;0.40;0.20;;;2.00;99.90;;;;;;4974733;28;20883;-70
2021/11/19 05:26:53;;;;;;;0.40;0.20;;;1.90;99.90;;;;;;4992108;28;20419;-70
2021/11/19 05:29:20;;;;;;;0.70;0.60;;;1.80;99.90;;;;;;4992391;28;20386;-71
2021/11/19 05:31:46;;;;;;;0.40;0.20;;;1.90;99.90;;;;;;4992561;28;20802;-70
2021/11/19 05:34:16;;;;;;;0.40;0.20;;;2.00;99.90;;;;;;4991926;28;20414;-70
2021/11/19 05:36:43;;;;;;;0.40;0.30;;;2.00;99.90;;;;;;4992422;28;20390;-70
2021/11/19 05:39:09;;;;;;;0.40;0.20;;;2.00;99.90;;;;;;4991705;28;20387;-71
2021/11/19 05:41:35;;;;;;;0.40;0.20;;;2.00;99.90;;;;;;4982101;28;20423;-70
2021/11/19 05:44:04;;;;;;;0.40;0.20;;;2.10;99.90;;;;;;4972863;28;20448;-71
2021/11/19 05:46:36;;;;;;;3.60;0.90;;;2.00;99.90;;;;;;4972543;28;20493;-71
2021/11/19 05:49:07;;;;;;;0.40;0.20;;;2.10;99.90;;;;;;4973107;28;20829;-71
2021/11/19 05:51:36;;;;;;;0.40;0.20;;;2.00;99.90;;;;;;4973044;28;20427;-71
2021/11/19 05:54:03;;;;;;;0.80;0.80;;;2.00;99.90;;;;;;4958307;28;20905;-70
2021/11/19 05:56:29;;;;;;;0.40;0.20;;;2.00;99.90;;;;;;4972422;28;20704;-71
2021/11/19 05:58:55;;;;;;;0.40;0.38;;;2.10;99.90;;;;;;4987177;28;20879;-71
2021/11/19 06:01:22;;;;;;;0.40;0.20;;;2.10;99.90;;;;;;4991886;28;20498;-71
2021/11/19 06:03:49;;;;;;;0.40;0.20;;;2.20;99.90;;;;;;4992480;28;20395;-71
2021/11/19 06:06:15;;;;;;;1.10;0.50;;;2.30;99.90;;;;;;4991888;28;20383;-72
2021/11/19 06:08:42;;;;;;;0.40;0.40;;;2.20;99.90;;;;;;4992650;28;20401;-71
2021/11/19 06:11:12;;;;;;;0.40;0.20;;;2.40;99.90;;;;;;4992257;28;20398;-72
2021/11/19 06:13:44;;;;;;;0.40;0.30;;;2.20;99.90;;;;;;4991640;28;20398;-73
2021/11/19 06:16:19;;;;;;;0.40;0.38;;;2.20;99.90;;;;;;4992203;28;20411;-71
2021/11/19 06:18:48;;;;;;;0.40;0.20;;;2.00;99.90;;;;;;4991576;28;20389;-71
2021/11/19 06:21:30;;;;;;;0.40;0.20;;;1.90;99.90;;;;;;4992013;28;20500;-71
2021/11/19 06:24:01;;;;;;;0.40;0.30;;;2.00;99.90;;;;;;4991808;28;20494;-71
2021/11/19 06:26:29;;;;;;;0.40;0.20;;;2.00;99.90;;;;;;4991862;28;20418;-72
2021/11/19 06:29:02;;;;;;;0.50;0.50;;;2.10;99.90;;;;;;4991958;28;20389;-71
2021/11/19 06:31:28;;;;;;;0.40;0.20;;;2.30;99.90;;;;;;4991736;28;20390;-71
2021/11/19 06:33:54;;;;;;;0.40;0.20;;;2.30;99.90;;;;;;4958688;28;20402;-71
2021/11/19 06:36:20;;;;;;;0.40;0.20;;;2.40;99.90;;;;;;4965681;28;20926;-71
2021/11/19 06:38:48;;;;;;;0.40;0.30;;;2.30;99.90;;;;;;4961458;28;20422;-71
2021/11/19 06:41:14;;;;;;;0.40;0.40;;;2.30;99.90;;;;;;4953095;29;20473;-71
2021/11/19 06:43:42;;;;;;;0.40;0.30;;;2.20;99.90;;;;;;4952369;29;20799;-72
2021/11/19 06:46:10;;;;;;;0.40;0.30;;;2.00;99.90;;;;;;4953083;29;20410;-71
2021/11/19 06:48:36;;;;;;;0.40;0.20;;;2.00;99.90;;;;;;4952885;29;20759;-71
2021/11/19 06:51:03;;;;;;;0.40;0.20;;;1.90;99.90;;;;;;4951760;28;20449;-71
2021/11/19 06:53:31;;;;;;;0.60;0.50;;;2.00;99.90;;;;;;4953070;29;20445;-71
2021/11/19 06:55:57;;;;;;;0.40;0.20;;;1.90;99.90;;;;;;4952343;29;20404;-71
2021/11/19 06:58:23;;;;;;;0.40;0.30;;;1.80;99.90;;;;;;4973037;28;20569;-71
2021/11/19 07:00:49;;;;;;;0.40;0.30;;;2.00;99.90;;;;;;4980622;28;20450;-72
2021/11/19 07:03:15;;;;;;;0.40;0.25;;;1.90;99.90;;;;;;4975167;28;20396;-71
2021/11/19 07:05:41;;;;;;;0.40;0.20;;;2.00;99.90;;;;;;4980082;28;20919;-71
2021/11/19 07:08:09;;;;;;;0.40;0.20;;;2.10;99.90;;;;;;4973475;28;20429;-71
2021/11/19 07:10:37;;;;;;;0.60;0.60;;;2.10;99.90;;;;;;4982629;28;20389;-70
2021/11/19 07:13:03;;;;;;;0.40;0.20;;;2.20;99.90;;;;;;4979964;28;20817;-71
2021/11/19 07:15:30;;;;;;;0.40;0.30;;;2.20;99.90;;;;;;4978422;28;20789;-71
2021/11/19 07:17:57;;;;;;;0.40;0.20;;;2.50;99.90;;;;;;4962800;28;20418;-70
2021/11/19 07:20:25;;;;;;;0.40;0.20;;;2.60;99.90;;;;;;4964988;28;20897;-70
2021/11/19 07:22:51;;;;;;;0.40;0.20;;;2.40;99.90;;;;;;4980212;28;20392;-70
2021/11/19 07:25:19;;;;;;;0.40;0.20;;;2.30;99.90;;;;;;4970131;28;20403;-70
2021/11/19 07:27:47;;;;;;;0.50;0.50;;;2.30;99.90;;;;;;4963808;28;20530;-70
2021/11/19 07:30:19;;;;;;;0.40;0.20;;;2.30;99.90;;;;;;4961536;28;20519;-70
2021/11/19 07:32:45;;;;;;;0.40;0.20;;;2.30;99.90;;;;;;4967372;28;20459;-71
2021/11/19 07:35:11;;;;;;;0.40;0.20;;;2.30;99.90;;;;;;4970627;28;20389;-71
2021/11/19 07:37:40;;;;;;;0.40;0.30;;;2.20;99.90;;;;;;4965768;28;20459;-71
2021/11/19 07:40:09;;;;;;;0.40;0.28;;;2.30;99.90;;;;;;4953204;28;20927;-72
2021/11/19 07:42:35;;;;;;;0.50;0.50;;;2.40;99.90;;;;;;4952477;29;20890;-71
2021/11/19 07:45:03;;;;;;;0.40;0.20;;;2.50;99.90;;;;;;4952530;29;20402;-71
2021/11/19 07:47:28;;;;;;;0.40;0.20;;;2.50;99.90;;;;;;4951885;29;20390;-71
2021/11/19 07:49:54;;;;;;;0.40;0.20;;;2.50;99.90;;;;;;4962670;28;20415;-71
2021/11/19 07:52:20;;;;;;;0.90;0.65;;;2.50;99.90;;;;;;4970993;28;20447;-71
2021/11/19 07:54:45;;;;;;;1.90;0.73;;;2.60;99.90;;;;;;4971999;28;20866;-71
2021/11/19 07:57:12;;;;;;;0.40;0.20;;;2.60;99.90;;;;;;4972744;28;20853;-71
2021/11/19 07:59:37;;;;;;;0.40;0.40;;;2.70;99.90;;;;;;5010192;28;20865;-71
2021/11/19 08:02:04;;;;;;;0.40;0.30;;;2.80;99.90;;;;;;5013138;28;20493;-71
2021/11/19 08:04:32;;;;;;;0.40;0.20;;;2.80;99.90;;;;;;4995954;28;20811;-72
2021/11/19 08:06:58;;;;;;;0.40;0.30;;;2.80;99.90;;;;;;5014025;28;20427;-71
2021/11/19 08:09:25;;;;;;;0.40;0.30;;;3.20;99.90;;;;;;5013634;28;20416;-71
2021/11/19 08:11:51;;;;;;;0.40;0.30;;;3.30;99.90;;;;;;5013743;28;20393;-71
2021/11/19 08:14:17;;;;;;;0.40;0.30;;;3.40;99.90;;;;;;5014079;28;20393;-71
2021/11/19 08:16:59;;;;;;;0.40;0.20;;;3.50;99.90;;;;;;5013369;28;20385;-71
2021/11/19 08:19:34;;;;;;;0.40;0.20;;;3.70;99.90;;;;;;5013454;28;20381;-72
2021/11/19 08:22:02;;;;;;;0.40;0.28;;;3.70;99.90;;;;;;5013941;28;20455;-70
2021/11/19 08:24:29;;;;;;;0.40;0.20;;;3.70;99.90;;;;;;5013353;28;20416;-69
2021/11/19 08:27:00;;;;;;;0.40;0.25;;;3.80;99.90;;;;;;5013786;28;20385;-68
2021/11/19 08:29:29;;;;;;;0.40;0.20;;;3.80;99.90;;;;;;5013502;28;20479;-68
2021/11/19 08:31:57;;;;;;;0.40;0.20;;;4.00;99.90;;;;;;5009447;28;20455;-69
2021/11/19 08:34:23;;;;;;;0.40;0.20;;;4.10;99.90;;;;;;4989826;28;20403;-68
2021/11/19 08:36:49;;;;;;;0.80;0.80;;;4.20;99.90;;;;;;4991951;28;20390;-69
2021/11/19 08:39:18;;;;;;;0.40;0.20;;;4.20;99.90;;;;;;4994021;28;20389;-68
2021/11/19 08:41:44;;;;;;;0.40;0.30;;;4.30;99.90;;;;;;4993153;28;20422;-68
2021/11/19 08:44:10;;;;;;;0.40;0.30;;;4.40;99.90;;;;;;4993899;28;20393;-68
2021/11/19 08:46:40;;;;;;;1.50;1.30;;;4.40;99.90;;;;;;4993525;28;20430;-70
2021/11/19 08:49:10;;;;;;;0.40;0.20;;;4.20;99.90;;;;;;4994342;28;20410;-68
2021/11/19 08:51:36;;;;;;;0.40;0.20;;;4.10;99.90;;;;;;5005005;28;20501;-68
2021/11/19 08:54:07;;;;;;;0.40;0.20;;;4.10;99.90;;;;;;4975880;28;20423;-68
2021/11/19 08:56:40;;;;;;;0.70;0.70;;;4.20;99.90;;;;;;4993653;28;20470;-68
2021/11/19 08:59:08;;;;;;;0.40;0.30;;;4.30;99.90;;;;;;5009566;28;20528;-68
2021/11/19 09:01:36;;;;;;;0.40;0.20;;;4.40;99.90;;;;;;4995354;28;20409;-68
2021/11/19 09:04:03;;;;;;;0.40;0.25;;;4.40;99.90;;;;;;5012405;28;20393;-68
2021/11/19 09:06:29;;;;;;;0.40;0.20;;;4.50;99.90;;;;;;5013020;28;20416;-69
2021/11/19 09:08:55;;;;;;;0.40;0.20;;;4.50;99.90;;;;;;5012369;28;20508;-69
2021/11/19 09:11:23;;;;;;;0.40;0.20;;;4.70;99.90;;;;;;5012993;28;20712;-68
2021/11/19 09:13:52;;;;;;;0.40;0.40;;;4.70;99.90;;;;;;5012297;28;20412;-69
2021/11/19 09:16:25;;;;;;;0.40;0.30;;;4.50;99.90;;;;;;5012912;28;20436;-69
2021/11/19 09:19:09;;;;;;;0.60;0.50;;;4.70;99.90;;;;;;5012279;28;20781;-68
2021/11/19 09:21:52;;;;;;;0.70;0.70;;;4.70;99.90;;;;;;5012934;28;20424;-68
2021/11/19 09:24:25;;;;;;;0.40;0.20;;;4.80;99.90;;;;;;5012938;28;20401;-68
2021/11/19 09:26:57;;;;;;;0.40;0.20;;;5.00;99.90;;;;;;5012605;28;20479;-68
2021/11/19 09:29:29;;;;;;;0.40;0.20;;;5.00;99.90;;;;;;4994358;28;20394;-68
2021/11/19 09:31:56;;;;;;;0.40;0.30;;;5.10;99.90;;;;;;4974120;28;20384;-68
2021/11/19 09:34:23;;;;;;;0.40;0.30;;;5.20;99.90;;;;;;4979468;28;20390;-68
2021/11/19 09:36:51;;;;;;;1.20;1.10;;;5.30;99.90;;;;;;4992540;28;20382;-68
2021/11/19 09:39:18;;;;;;;0.40;0.30;;;5.40;99.90;;;;;;4992115;28;20391;-68
2021/11/19 09:42:32;;;;;;;1.30;1.20;;;5.50;99.90;;;;;;4984754;28;20500;-68
2021/11/19 09:45:32;;;;;;;0.40;0.30;;;5.50;99.90;;;;;;4913508;29;20480;-68
2021/11/19 09:48:16;;;;;;;0.40;0.20;;;5.70;99.90;;;;;;4955175;28;20396;-69
2021/11/19 09:50:47;;;;;;;0.50;0.50;;;5.60;99.90;;;;;;4959609;28;20424;-69
2021/11/19 09:53:34;;;;;;;0.60;0.60;;;5.80;99.90;;;;;;4972254;28;20900;-68
2021/11/19 09:56:18;;;;;;;0.40;0.22;;;6.00;99.90;;;;;;4972844;28;20726;-68
2021/11/19 09:59:37;;;;;;;0.40;0.20;;;6.10;99.90;;;;;;4985895;28;20399;-68
2021/11/19 10:02:13;;;;;;;0.40;0.20;;;6.20;99.90;;;;;;4938660;28;20442;-69
2021/11/19 10:05:16;;;;;;;0.40;0.40;;;6.10;99.90;;;;;;4992421;28;20387;-68
2021/11/19 10:08:06;;;;;;;0.50;0.50;;;6.10;99.90;;;;;;4974798;28;20402;-68
2021/11/19 10:10:55;;;;;;;0.40;0.40;;;6.20;99.90;;;;;;4991451;28;20433;-70
2021/11/19 10:13:45;;;;;;;0.40;0.20;;;6.20;99.90;;;;;;4991479;28;20397;-70
2021/11/19 10:16:29;;;;;;;0.40;0.30;;;6.30;99.90;;;;;;4992080;28;20387;-70
2021/11/19 10:19:02;;;;;;;0.40;0.20;;;6.20;99.90;;;;;;4992139;28;20390;-70
2021/11/19 10:21:36;;;;;;;0.40;0.20;;;6.40;99.90;;;;;;4991880;28;20414;-70
2021/11/19 10:24:26;;;;;;;0.60;0.50;;;6.50;99.90;;;;;;4964303;28;20408;-70
2021/11/19 10:26:52;;;;;;;0.40;0.20;;;6.60;99.90;;;;;;4969232;28;20471;-69
2021/11/19 10:29:26;;;;;;;0.40;0.20;;;6.70;99.90;;;;;;4969001;28;20899;-70
2021/11/19 10:31:54;;;;;;;0.40;0.40;;;6.70;99.90;;;;;;4967712;28;20411;-69
2021/11/19 10:34:35;;;;;;;1.10;1.00;;;6.90;99.90;;;;;;4968068;28;20528;-71
2021/11/19 10:37:12;;;;;;;0.40;0.20;;;6.90;99.90;;;;;;4949892;28;20418;-72
2021/11/19 10:39:59;;;;;;;0.40;0.30;;;6.80;99.90;;;;;;4967218;28;20869;-72
2021/11/19 10:42:40;;;;;;;0.40;0.20;;;6.50;99.90;;;;;;4947870;28;20800;-69
2021/11/19 10:45:15;;;;;;;0.40;0.40;;;6.70;99.90;;;;;;4969719;28;20423;-70
2021/11/19 10:47:49;;;;;;;0.40;0.30;;;6.60;99.90;;;;;;4965861;28;20404;-71
2021/11/19 10:50:45;;;;;;;0.40;0.20;;;6.70;99.90;;;;;;4980885;28;20433;-68
2021/11/19 10:53:14;;;;;;;1.00;0.60;;;6.70;99.90;;;;;;4984705;28;20933;-69
2021/11/19 10:56:15;;;;;;;1.30;0.80;;;6.90;99.90;;;;;;4985770;28;20401;-69
2021/11/19 10:58:47;;;;;;;0.40;0.20;;;7.50;99.90;;;;;;4987177;28;20804;-69
2021/11/19 11:01:25;;;;;;;0.40;0.20;;;7.20;99.90;;;;;;4988495;28;20423;-69
2021/11/19 11:04:09;;;;;;;0.40;0.20;;;7.50;99.90;;;;;;4984491;28;20767;-69
2021/11/19 11:06:43;;;;;;;0.40;0.30;;;7.20;99.90;;;;;;4986131;28;20398;-70
2021/11/19 11:09:20;;;;;;;0.40;0.40;;;7.70;99.90;;;;;;4987462;28;20385;-68
2021/11/19 11:11:53;;;;;;;0.40;0.20;;;8.00;99.90;;;;;;4986423;28;20423;-69
2021/11/19 11:14:19;;;;;;;0.40;0.20;;;8.20;99.90;;;;;;4987730;28;20889;-68
2021/11/19 11:16:48;;;;;;;0.40;0.30;;;8.00;99.90;;;;;;4970081;28;20410;-70
2021/11/19 11:19:25;;;;;;;0.40;0.20;;;7.40;99.90;;;;;;4988319;28;20386;-69
2021/11/19 11:21:54;;;;;;;0.40;0.30;;;7.80;99.90;;;;;;4985523;28;20444;-70
2021/11/19 11:24:23;;;;;;;0.40;0.20;;;7.50;99.90;;;;;;4988084;28;20395;-70
2021/11/19 11:27:10;;;;;;;0.40;0.20;;;7.80;99.90;;;;;;4986888;28;20449;-71
2021/11/19 11:29:42;;;;;;;0.40;0.30;;;7.80;99.90;;;;;;4986876;28;20396;-69
2021/11/19 11:32:23;;;;;;;0.40;0.20;;;7.60;99.90;;;;;;4985284;28;20384;-69
2021/11/19 11:35:29;;;;;;;0.40;0.30;;;7.80;99.90;;;;;;4987364;28;20890;-70
2021/11/19 11:38:07;;;;;;;0.40;0.20;;;8.30;99.90;;;;;;4964402;28;20410;-71
2021/11/19 11:40:51;;;;;;;0.40;0.20;;;8.40;99.90;;;;;;4988622;28;20406;-70
2021/11/19 11:43:29;;;;;;;0.40;0.20;;;8.20;99.90;;;;;;4988951;28;20401;-69
2021/11/19 11:46:16;;;;;;;0.40;0.30;;;9.10;99.90;;;;;;4990209;28;20467;-69
2021/11/19 11:49:01;;;;;;;0.40;0.40;;;9.90;99.90;;;;;;4990380;28;20407;-69
2021/11/19 11:51:37;;;;;;;0.40;0.20;;;9.50;99.90;;;;;;4972447;28;20440;-70
2021/11/19 11:54:30;;;;;;;0.40;0.30;;;9.50;99.90;;;;;;4969491;28;20444;-71
2021/11/19 11:57:22;;;;;;;0.40;0.30;;;10.50;99.90;;;;;;4970698;28;20400;-70
2021/11/19 12:00:11;;;;;;;0.40;0.28;;;9.00;99.90;;;;;;4971992;28;21023;-70
2021/11/19 12:02:44;;;;;;;0.40;0.20;;;8.80;99.90;;;;;;4969426;28;20453;-71
2021/11/19 12:05:37;;;;;;;1.15;0.75;;;9.20;99.90;;;;;;4972161;28;21263;-70
2021/11/19 12:08:06;;;;;;;0.40;0.30;;;8.10;99.90;;;;;;4971515;28;21384;-71
2021/11/19 12:10:43;;;;;;;0.40;0.20;;;7.60;99.90;;;;;;4971084;28;20402;-70
2021/11/19 12:13:18;;;;;;;0.40;0.30;;;7.20;99.90;;;;;;4964976;28;20430;-72
2021/11/19 12:16:01;;;;;;;0.60;0.60;;;6.60;99.90;;;;;;4973534;28;20877;-70
2021/11/19 12:18:40;;;;;;;0.50;0.40;;;6.40;99.90;;;;;;4969685;28;20385;-70
2021/11/19 12:21:44;;;;;;;2.60;0.90;;;6.00;99.90;;;;;;4966686;28;20457;-70
2021/11/19 12:24:09;;;;;;;1.70;1.00;;;5.90;99.90;;;;;;4954081;28;20416;-70
2021/11/19 12:27:00;;;;;;;0.40;0.30;;;5.50;99.90;;;;;;4973870;28;20396;-70
2021/11/19 12:29:44;;;;;;;1.35;1.25;;;5.50;99.90;;;;;;4973973;28;20411;-70
2021/11/19 12:32:33;;;;;;;0.40;0.30;;;5.30;99.90;;;;;;4957612;28;20743;-70
2021/11/19 12:35:36;;;;;;;0.60;0.60;;;5.30;99.90;;;;;;4974785;28;20396;-71
2021/11/19 12:38:08;;;;;;;0.40;0.20;;;5.20;99.90;;;;;;4974427;28;20443;-70
2021/11/19 12:40:37;;;;;;;1.30;0.70;;;5.20;99.90;;;;;;4971927;28;20727;-71
2021/11/19 12:43:29;;;;;;;0.40;0.30;;;5.40;99.90;;;;;;4968043;28;20391;-71
2021/11/19 12:46:17;;;;;;;0.40;0.30;;;5.20;99.90;;;;;;4974284;28;20392;-70
2021/11/19 12:49:04;;;;;;;0.40;0.20;;;5.30;99.90;;;;;;4972880;28;20384;-69
2021/11/19 12:51:34;;;;;;;0.40;0.30;;;5.50;99.90;;;;;;4973464;28;20408;-72
2021/11/19 12:54:18;;;;;;;2.00;0.90;;;5.50;99.90;;;;;;4973960;28;20745;-70
2021/11/19 12:56:53;;;;;;;0.40;0.30;;;5.40;99.90;;;;;;4972853;28;20904;-70
2021/11/19 12:59:21;;;;;;;0.57;0.57;;;5.50;99.90;;;;;;4991348;28;20398;-70
2021/11/19 13:02:11;;;;;;;0.40;0.20;;;5.70;99.90;;;;;;4991747;28;20417;-70
2021/11/19 13:04:51;;;;;;;0.60;0.60;;;5.70;99.90;;;;;;4969831;28;20397;-70
2021/11/19 13:07:36;;;;;;;0.40;0.30;;;5.70;99.90;;;;;;4969940;28;20442;-69
2021/11/19 13:10:25;;;;;;;2.40;1.00;;;5.50;99.90;;;;;;4968355;28;20878;-68
2021/11/19 13:13:21;;;;;;;0.40;0.20;;;5.90;99.90;;;;;;4942616;28;20411;-69
2021/11/19 13:16:23;;;;;;;0.40;0.20;;;6.00;99.90;;;;;;4968675;28;20410;-71
2021/11/19 13:18:52;;;;;;;0.40;0.20;;;6.00;99.90;;;;;;4946956;28;20426;-70
2021/11/19 13:21:35;;;;;;;0.40;0.20;;;6.00;99.90;;;;;;4968921;28;20474;-69
2021/11/19 13:24:13;;;;;;;0.40;0.20;;;6.10;99.90;;;;;;4966851;28;20408;-69